sensor_id;sensor_type;location;lat;lon;timestamp;P1;durP1;ratioP1;P2;durP2;ratioP2
3953;SDS011;1991;48.682;9.030;2023-06-10T00:01:23;6.32;;;4.85;;
3953;SDS011;1991;48.682;9.030;2023-06-10T00:03:50;5.93;;;5.10;;
3953;SDS011;1991;48.682;9.030;2023-06-10T00:06:16;5.60;;;5.10;;
3953;SDS011;1991;48.682;9.030;2023-06-10T00:08:42;6.38;;;5.57;;
3953;SDS011;1991;48.682;9.030;2023-06-10T00:11:08;6.22;;;4.80;;
3953;SDS011;1991;48.682;9.030;2023-06-10T00:13:33;6.90;;;4.78;;
3953;SDS011;1991;48.682;9.030;2023-06-10T00:15:59;5.55;;;5.05;;
3953;SDS011;1991;48.682;9.030;2023-06-10T00:18:25;7.82;;;5.50;;
3953;SDS011;1991;48.682;9.030;2023-06-10T00:20:52;7.78;;;5.40;;
3953;SDS011;1991;48.682;9.030;2023-06-10T00:23:19;5.55;;;5.05;;
3953;SDS011;1991;48.682;9.030;2023-06-10T00:25:46;5.63;;;5.03;;
3953;SDS011;1991;48.682;9.030;2023-06-10T00:28:11;7.97;;;5.07;;
3953;SDS011;1991;48.682;9.030;2023-06-10T00:30:38;5.38;;;4.70;;
3953;SDS011;1991;48.682;9.030;2023-06-10T00:33:04;6.07;;;5.20;;
3953;SDS011;1991;48.682;9.030;2023-06-10T00:35:29;7.68;;;5.13;;
3953;SDS011;1991;48.682;9.030;2023-06-10T00:37:55;5.88;;;5.28;;
3953;SDS011;1991;48.682;9.030;2023-06-10T00:40:21;6.38;;;5.38;;
3953;SDS011;1991;48.682;9.030;2023-06-10T00:42:46;7.05;;;4.70;;
3953;SDS011;1991;48.682;9.030;2023-06-10T00:45:12;5.50;;;5.00;;
3953;SDS011;1991;48.682;9.030;2023-06-10T00:47:38;7.13;;;4.82;;
3953;SDS011;1991;48.682;9.030;2023-06-10T00:50:04;5.13;;;4.65;;
3953;SDS011;1991;48.682;9.030;2023-06-10T00:52:31;5.85;;;5.28;;
3953;SDS011;1991;48.682;9.030;2023-06-10T00:54:58;9.23;;;4.70;;
3953;SDS011;1991;48.682;9.030;2023-06-10T00:57:24;5.72;;;5.07;;
3953;SDS011;1991;48.682;9.030;2023-06-10T00:59:51;5.65;;;5.15;;
3953;SDS011;1991;48.682;9.030;2023-06-10T01:02:17;5.28;;;4.78;;
3953;SDS011;1991;48.682;9.030;2023-06-10T01:04:43;5.88;;;4.97;;
3953;SDS011;1991;48.682;9.030;2023-06-10T01:09:38;5.38;;;4.88;;
3953;SDS011;1991;48.682;9.030;2023-06-10T01:12:33;7.88;;;4.63;;
3953;SDS011;1991;48.682;9.030;2023-06-10T01:15:00;5.40;;;4.90;;
3953;SDS011;1991;48.682;9.030;2023-06-10T01:17:26;5.28;;;4.78;;
3953;SDS011;1991;48.682;9.030;2023-06-10T01:19:56;4.88;;;4.45;;
3953;SDS011;1991;48.682;9.030;2023-06-10T01:22:23;5.55;;;5.05;;
3953;SDS011;1991;48.682;9.030;2023-06-10T01:24:50;4.82;;;4.40;;
3953;SDS011;1991;48.682;9.030;2023-06-10T01:27:17;5.43;;;4.93;;
3953;SDS011;1991;48.682;9.030;2023-06-10T01:29:49;5.88;;;5.30;;
3953;SDS011;1991;48.682;9.030;2023-06-10T01:32:26;5.38;;;4.80;;
3953;SDS011;1991;48.682;9.030;2023-06-10T01:35:02;5.88;;;5.05;;
3953;SDS011;1991;48.682;9.030;2023-06-10T01:37:30;5.40;;;4.90;;
3953;SDS011;1991;48.682;9.030;2023-06-10T01:39:57;6.47;;;5.35;;
3953;SDS011;1991;48.682;9.030;2023-06-10T01:42:24;7.95;;;5.82;;
3953;SDS011;1991;48.682;9.030;2023-06-10T01:44:50;6.00;;;5.13;;
3953;SDS011;1991;48.682;9.030;2023-06-10T01:47:16;6.88;;;5.70;;
3953;SDS011;1991;48.682;9.030;2023-06-10T01:49:42;7.82;;;5.32;;
3953;SDS011;1991;48.682;9.030;2023-06-10T01:52:08;7.45;;;6.60;;
3953;SDS011;1991;48.682;9.030;2023-06-10T01:54:34;6.30;;;5.70;;
3953;SDS011;1991;48.682;9.030;2023-06-10T01:57:01;7.10;;;5.97;;
3953;SDS011;1991;48.682;9.030;2023-06-10T01:59:27;7.07;;;6.07;;
3953;SDS011;1991;48.682;9.030;2023-06-10T02:01:52;6.20;;;5.60;;
3953;SDS011;1991;48.682;9.030;2023-06-10T02:04:18;6.45;;;5.85;;
3953;SDS011;1991;48.682;9.030;2023-06-10T02:06:47;8.23;;;5.63;;
3953;SDS011;1991;48.682;9.030;2023-06-10T02:09:13;6.53;;;5.93;;
3953;SDS011;1991;48.682;9.030;2023-06-10T02:11:39;5.63;;;5.13;;
3953;SDS011;1991;48.682;9.030;2023-06-10T02:14:05;7.18;;;5.50;;
3953;SDS011;1991;48.682;9.030;2023-06-10T02:16:31;6.70;;;5.95;;
3953;SDS011;1991;48.682;9.030;2023-06-10T02:18:57;6.70;;;5.97;;
3953;SDS011;1991;48.682;9.030;2023-06-10T02:21:23;6.78;;;5.75;;
3953;SDS011;1991;48.682;9.030;2023-06-10T02:23:49;8.13;;;6.10;;
3953;SDS011;1991;48.682;9.030;2023-06-10T02:26:15;7.65;;;6.65;;
3953;SDS011;1991;48.682;9.030;2023-06-10T02:28:44;9.25;;;6.72;;
3953;SDS011;1991;48.682;9.030;2023-06-10T02:31:10;6.25;;;5.70;;
3953;SDS011;1991;48.682;9.030;2023-06-10T02:33:36;8.32;;;6.70;;
3953;SDS011;1991;48.682;9.030;2023-06-10T02:36:05;6.50;;;5.75;;
3953;SDS011;1991;48.682;9.030;2023-06-10T02:38:31;7.00;;;6.40;;
3953;SDS011;1991;48.682;9.030;2023-06-10T02:40:56;7.47;;;6.05;;
3953;SDS011;1991;48.682;9.030;2023-06-10T02:43:22;6.55;;;5.97;;
3953;SDS011;1991;48.682;9.030;2023-06-10T02:45:48;8.15;;;6.88;;
3953;SDS011;1991;48.682;9.030;2023-06-10T02:48:14;7.38;;;6.22;;
3953;SDS011;1991;48.682;9.030;2023-06-10T02:50:39;7.00;;;6.30;;
3953;SDS011;1991;48.682;9.030;2023-06-10T02:53:05;6.57;;;5.97;;
3953;SDS011;1991;48.682;9.030;2023-06-10T02:55:31;6.75;;;5.85;;
3953;SDS011;1991;48.682;9.030;2023-06-10T02:57:57;7.30;;;6.57;;
3953;SDS011;1991;48.682;9.030;2023-06-10T03:00:24;7.60;;;6.90;;
3953;SDS011;1991;48.682;9.030;2023-06-10T03:02:50;6.93;;;6.22;;
3953;SDS011;1991;48.682;9.030;2023-06-10T03:05:16;7.20;;;6.10;;
3953;SDS011;1991;48.682;9.030;2023-06-10T03:07:42;6.97;;;6.38;;
3953;SDS011;1991;48.682;9.030;2023-06-10T03:10:07;6.97;;;6.28;;
3953;SDS011;1991;48.682;9.030;2023-06-10T03:12:33;7.65;;;6.68;;
3953;SDS011;1991;48.682;9.030;2023-06-10T03:14:59;7.60;;;6.65;;
3953;SDS011;1991;48.682;9.030;2023-06-10T03:17:25;8.20;;;6.60;;
3953;SDS011;1991;48.682;9.030;2023-06-10T03:19:50;7.50;;;6.65;;
3953;SDS011;1991;48.682;9.030;2023-06-10T03:22:16;6.93;;;6.20;;
3953;SDS011;1991;48.682;9.030;2023-06-10T03:24:42;6.70;;;6.10;;
3953;SDS011;1991;48.682;9.030;2023-06-10T03:27:11;7.20;;;6.60;;
3953;SDS011;1991;48.682;9.030;2023-06-10T03:29:38;6.35;;;5.72;;
3953;SDS011;1991;48.682;9.030;2023-06-10T03:32:04;7.28;;;6.57;;
3953;SDS011;1991;48.682;9.030;2023-06-10T03:34:31;8.70;;;6.78;;
3953;SDS011;1991;48.682;9.030;2023-06-10T03:36:57;6.80;;;6.10;;
3953;SDS011;1991;48.682;9.030;2023-06-10T03:39:23;7.07;;;6.38;;
3953;SDS011;1991;48.682;9.030;2023-06-10T03:41:49;6.85;;;6.22;;
3953;SDS011;1991;48.682;9.030;2023-06-10T03:44:15;6.90;;;6.30;;
3953;SDS011;1991;48.682;9.030;2023-06-10T03:46:41;6.57;;;6.07;;
3953;SDS011;1991;48.682;9.030;2023-06-10T03:49:07;7.70;;;7.00;;
3953;SDS011;1991;48.682;9.030;2023-06-10T03:51:34;7.90;;;6.88;;
3953;SDS011;1991;48.682;9.030;2023-06-10T03:54:00;9.02;;;7.30;;
3953;SDS011;1991;48.682;9.030;2023-06-10T03:56:26;6.90;;;6.20;;
3953;SDS011;1991;48.682;9.030;2023-06-10T03:58:53;7.40;;;6.78;;
3953;SDS011;1991;48.682;9.030;2023-06-10T04:01:19;8.45;;;6.55;;
3953;SDS011;1991;48.682;9.030;2023-06-10T04:03:46;7.38;;;6.65;;
3953;SDS011;1991;48.682;9.030;2023-06-10T04:06:14;7.53;;;6.82;;
3953;SDS011;1991;48.682;9.030;2023-06-10T04:08:41;8.00;;;6.80;;
3953;SDS011;1991;48.682;9.030;2023-06-10T04:11:07;6.68;;;6.07;;
3953;SDS011;1991;48.682;9.030;2023-06-10T04:13:33;7.78;;;7.07;;
3953;SDS011;1991;48.682;9.030;2023-06-10T04:15:59;8.48;;;6.25;;
3953;SDS011;1991;48.682;9.030;2023-06-10T04:18:25;7.70;;;6.60;;
3953;SDS011;1991;48.682;9.030;2023-06-10T04:20:51;7.30;;;6.60;;
3953;SDS011;1991;48.682;9.030;2023-06-10T04:23:17;7.90;;;7.00;;
3953;SDS011;1991;48.682;9.030;2023-06-10T04:25:43;7.78;;;7.00;;
3953;SDS011;1991;48.682;9.030;2023-06-10T04:28:09;7.20;;;6.60;;
3953;SDS011;1991;48.682;9.030;2023-06-10T04:30:38;8.07;;;7.10;;
3953;SDS011;1991;48.682;9.030;2023-06-10T04:33:04;6.97;;;6.40;;
3953;SDS011;1991;48.682;9.030;2023-06-10T04:35:31;8.73;;;6.70;;
3953;SDS011;1991;48.682;9.030;2023-06-10T04:37:58;7.80;;;7.05;;
3953;SDS011;1991;48.682;9.030;2023-06-10T04:40:23;9.05;;;7.10;;
3953;SDS011;1991;48.682;9.030;2023-06-10T04:42:49;7.72;;;7.03;;
3953;SDS011;1991;48.682;9.030;2023-06-10T04:45:15;8.05;;;7.25;;
3953;SDS011;1991;48.682;9.030;2023-06-10T04:47:41;8.35;;;6.47;;
3953;SDS011;1991;48.682;9.030;2023-06-10T04:50:06;7.38;;;6.68;;
3953;SDS011;1991;48.682;9.030;2023-06-10T04:52:32;7.82;;;7.00;;
3953;SDS011;1991;48.682;9.030;2023-06-10T04:54:58;8.38;;;7.03;;
3953;SDS011;1991;48.682;9.030;2023-06-10T04:57:24;7.25;;;6.55;;
3953;SDS011;1991;48.682;9.030;2023-06-10T04:59:51;7.45;;;6.75;;
3953;SDS011;1991;48.682;9.030;2023-06-10T05:02:17;9.77;;;7.05;;
3953;SDS011;1991;48.682;9.030;2023-06-10T05:04:43;7.93;;;6.57;;
3953;SDS011;1991;48.682;9.030;2023-06-10T05:07:09;7.90;;;7.20;;
3953;SDS011;1991;48.682;9.030;2023-06-10T05:09:34;7.43;;;6.72;;
3953;SDS011;1991;48.682;9.030;2023-06-10T05:12:00;7.70;;;6.85;;
3953;SDS011;1991;48.682;9.030;2023-06-10T05:14:27;7.00;;;6.40;;
3953;SDS011;1991;48.682;9.030;2023-06-10T05:16:53;7.32;;;6.63;;
3953;SDS011;1991;48.682;9.030;2023-06-10T05:19:19;7.15;;;6.45;;
3953;SDS011;1991;48.682;9.030;2023-06-10T05:21:44;6.50;;;5.90;;
3953;SDS011;1991;48.682;9.030;2023-06-10T05:24:11;5.78;;;5.28;;
3953;SDS011;1991;48.682;9.030;2023-06-10T05:26:37;5.60;;;5.10;;
3953;SDS011;1991;48.682;9.030;2023-06-10T05:29:03;5.57;;;4.78;;
3953;SDS011;1991;48.682;9.030;2023-06-10T05:31:29;4.90;;;4.50;;
3953;SDS011;1991;48.682;9.030;2023-06-10T05:33:55;5.05;;;4.65;;
3953;SDS011;1991;48.682;9.030;2023-06-10T05:36:21;5.18;;;4.60;;
3953;SDS011;1991;48.682;9.030;2023-06-10T05:38:46;5.18;;;4.70;;
3953;SDS011;1991;48.682;9.030;2023-06-10T05:41:12;5.10;;;4.60;;
3953;SDS011;1991;48.682;9.030;2023-06-10T05:43:38;4.97;;;4.57;;
3953;SDS011;1991;48.682;9.030;2023-06-10T05:46:03;5.18;;;4.70;;
3953;SDS011;1991;48.682;9.030;2023-06-10T05:48:29;6.35;;;4.72;;
3953;SDS011;1991;48.682;9.030;2023-06-10T05:50:55;4.93;;;4.32;;
3953;SDS011;1991;48.682;9.030;2023-06-10T05:53:20;4.82;;;4.43;;
3953;SDS011;1991;48.682;9.030;2023-06-10T05:55:46;5.43;;;4.28;;
3953;SDS011;1991;48.682;9.030;2023-06-10T05:58:12;5.55;;;5.05;;
3953;SDS011;1991;48.682;9.030;2023-06-10T06:00:39;5.35;;;4.85;;
3953;SDS011;1991;48.682;9.030;2023-06-10T06:03:08;5.85;;;5.35;;
3953;SDS011;1991;48.682;9.030;2023-06-10T06:05:34;5.85;;;5.07;;
3953;SDS011;1991;48.682;9.030;2023-06-10T06:08:02;5.97;;;5.47;;
3953;SDS011;1991;48.682;9.030;2023-06-10T06:10:28;6.05;;;5.35;;
3953;SDS011;1991;48.682;9.030;2023-06-10T06:12:54;5.53;;;4.93;;
3953;SDS011;1991;48.682;9.030;2023-06-10T06:15:20;4.95;;;4.55;;
3953;SDS011;1991;48.682;9.030;2023-06-10T06:17:45;6.05;;;4.93;;
3953;SDS011;1991;48.682;9.030;2023-06-10T06:20:11;5.03;;;4.53;;
3953;SDS011;1991;48.682;9.030;2023-06-10T06:22:37;5.60;;;5.10;;
3953;SDS011;1991;48.682;9.030;2023-06-10T06:25:02;7.85;;;5.43;;
3953;SDS011;1991;48.682;9.030;2023-06-10T06:27:28;7.50;;;5.20;;
3953;SDS011;1991;48.682;9.030;2023-06-10T06:29:54;5.30;;;4.82;;
3953;SDS011;1991;48.682;9.030;2023-06-10T06:32:19;5.60;;;5.15;;
3953;SDS011;1991;48.682;9.030;2023-06-10T06:34:47;5.80;;;5.20;;
3953;SDS011;1991;48.682;9.030;2023-06-10T06:37:14;5.90;;;5.07;;
3953;SDS011;1991;48.682;9.030;2023-06-10T06:39:40;8.05;;;4.95;;
3953;SDS011;1991;48.682;9.030;2023-06-10T06:42:05;5.47;;;4.90;;
3953;SDS011;1991;48.682;9.030;2023-06-10T06:44:31;6.28;;;4.93;;
3953;SDS011;1991;48.682;9.030;2023-06-10T06:46:57;5.53;;;5.03;;
3953;SDS011;1991;48.682;9.030;2023-06-10T06:49:22;5.30;;;4.80;;
3953;SDS011;1991;48.682;9.030;2023-06-10T06:51:48;6.20;;;5.10;;
3953;SDS011;1991;48.682;9.030;2023-06-10T06:54:13;5.53;;;5.03;;
3953;SDS011;1991;48.682;9.030;2023-06-10T06:56:39;4.97;;;4.57;;
3953;SDS011;1991;48.682;9.030;2023-06-10T06:59:04;5.53;;;5.10;;
3953;SDS011;1991;48.682;9.030;2023-06-10T07:01:33;6.60;;;5.13;;
3953;SDS011;1991;48.682;9.030;2023-06-10T07:03:59;5.80;;;5.30;;
3953;SDS011;1991;48.682;9.030;2023-06-10T07:06:24;5.03;;;4.63;;
3953;SDS011;1991;48.682;9.030;2023-06-10T07:08:50;6.13;;;5.53;;
3953;SDS011;1991;48.682;9.030;2023-06-10T07:11:16;8.18;;;5.70;;
3953;SDS011;1991;48.682;9.030;2023-06-10T07:13:42;5.47;;;4.97;;
3953;SDS011;1991;48.682;9.030;2023-06-10T07:16:08;5.80;;;5.20;;
3953;SDS011;1991;48.682;9.030;2023-06-10T07:18:33;5.30;;;4.88;;
3953;SDS011;1991;48.682;9.030;2023-06-10T07:20:59;5.10;;;4.70;;
3953;SDS011;1991;48.682;9.030;2023-06-10T07:23:25;5.45;;;4.95;;
3953;SDS011;1991;48.682;9.030;2023-06-10T07:25:50;5.25;;;4.75;;
3953;SDS011;1991;48.682;9.030;2023-06-10T07:28:16;5.77;;;5.13;;
3953;SDS011;1991;48.682;9.030;2023-06-10T07:30:41;5.28;;;4.78;;
3953;SDS011;1991;48.682;9.030;2023-06-10T07:33:07;6.80;;;4.80;;
3953;SDS011;1991;48.682;9.030;2023-06-10T07:35:32;5.00;;;4.60;;
3953;SDS011;1991;48.682;9.030;2023-06-10T07:37:58;4.88;;;4.13;;
3953;SDS011;1991;48.682;9.030;2023-06-10T07:40:24;5.85;;;4.07;;
3953;SDS011;1991;48.682;9.030;2023-06-10T07:42:49;5.15;;;4.70;;
3953;SDS011;1991;48.682;9.030;2023-06-10T07:45:15;4.13;;;3.83;;
3953;SDS011;1991;48.682;9.030;2023-06-10T07:47:42;4.82;;;4.43;;
3953;SDS011;1991;48.682;9.030;2023-06-10T07:50:08;4.10;;;3.80;;
3953;SDS011;1991;48.682;9.030;2023-06-10T07:52:34;4.82;;;4.43;;
3953;SDS011;1991;48.682;9.030;2023-06-10T07:55:00;4.50;;;4.10;;
3953;SDS011;1991;48.682;9.030;2023-06-10T07:57:25;4.40;;;3.90;;
3953;SDS011;1991;48.682;9.030;2023-06-10T07:59:51;4.55;;;4.15;;
3953;SDS011;1991;48.682;9.030;2023-06-10T08:02:17;4.93;;;4.47;;
3953;SDS011;1991;48.682;9.030;2023-06-10T08:04:42;4.78;;;4.38;;
3953;SDS011;1991;48.682;9.030;2023-06-10T08:07:08;4.47;;;4.07;;
3953;SDS011;1991;48.682;9.030;2023-06-10T08:09:34;4.72;;;4.32;;
3953;SDS011;1991;48.682;9.030;2023-06-10T08:11:59;4.88;;;4.38;;
3953;SDS011;1991;48.682;9.030;2023-06-10T08:14:25;4.60;;;4.20;;
3953;SDS011;1991;48.682;9.030;2023-06-10T08:16:51;5.68;;;4.28;;
3953;SDS011;1991;48.682;9.030;2023-06-10T08:19:16;5.63;;;4.50;;
3953;SDS011;1991;48.682;9.030;2023-06-10T08:21:42;20.58;;;14.52;;
3953;SDS011;1991;48.682;9.030;2023-06-10T08:24:08;9.48;;;6.07;;
3953;SDS011;1991;48.682;9.030;2023-06-10T08:26:34;16.17;;;11.55;;
3953;SDS011;1991;48.682;9.030;2023-06-10T08:29:00;5.20;;;4.70;;
3953;SDS011;1991;48.682;9.030;2023-06-10T08:31:26;5.57;;;4.88;;
3953;SDS011;1991;48.682;9.030;2023-06-10T08:33:51;7.40;;;5.40;;
3953;SDS011;1991;48.682;9.030;2023-06-10T08:36:17;5.43;;;4.97;;
3953;SDS011;1991;48.682;9.030;2023-06-10T08:38:42;7.95;;;6.55;;
3953;SDS011;1991;48.682;9.030;2023-06-10T08:41:08;7.60;;;4.50;;
3953;SDS011;1991;48.682;9.030;2023-06-10T08:44:02;7.22;;;4.53;;
3953;SDS011;1991;48.682;9.030;2023-06-10T08:46:36;4.93;;;4.22;;
3953;SDS011;1991;48.682;9.030;2023-06-10T08:49:03;5.45;;;4.95;;
3953;SDS011;1991;48.682;9.030;2023-06-10T08:51:32;4.82;;;4.43;;
3953;SDS011;1991;48.682;9.030;2023-06-10T08:54:03;5.20;;;4.75;;
3953;SDS011;1991;48.682;9.030;2023-06-10T08:56:36;5.28;;;4.78;;
3953;SDS011;1991;48.682;9.030;2023-06-10T08:59:05;4.38;;;3.90;;
3953;SDS011;1991;48.682;9.030;2023-06-10T09:01:31;4.80;;;4.25;;
3953;SDS011;1991;48.682;9.030;2023-06-10T09:03:57;7.38;;;4.28;;
3953;SDS011;1991;48.682;9.030;2023-06-10T09:06:24;5.18;;;4.32;;
3953;SDS011;1991;48.682;9.030;2023-06-10T09:08:50;4.30;;;3.92;;
3953;SDS011;1991;48.682;9.030;2023-06-10T09:11:17;7.72;;;4.30;;
3953;SDS011;1991;48.682;9.030;2023-06-10T09:13:42;5.13;;;3.80;;
3953;SDS011;1991;48.682;9.030;2023-06-10T09:16:08;4.13;;;3.72;;
3953;SDS011;1991;48.682;9.030;2023-06-10T09:18:36;4.50;;;4.10;;
3953;SDS011;1991;48.682;9.030;2023-06-10T09:21:02;5.55;;;4.25;;
3953;SDS011;1991;48.682;9.030;2023-06-10T09:23:28;4.68;;;3.80;;
3953;SDS011;1991;48.682;9.030;2023-06-10T09:25:57;5.57;;;3.83;;
3953;SDS011;1991;48.682;9.030;2023-06-10T09:28:23;5.85;;;4.45;;
3953;SDS011;1991;48.682;9.030;2023-06-10T09:30:49;4.20;;;3.90;;
3953;SDS011;1991;48.682;9.030;2023-06-10T09:33:26;4.20;;;3.90;;
3953;SDS011;1991;48.682;9.030;2023-06-10T09:35:51;4.30;;;3.90;;
3953;SDS011;1991;48.682;9.030;2023-06-10T09:38:20;4.35;;;4.05;;
3953;SDS011;1991;48.682;9.030;2023-06-10T09:43:18;4.63;;;4.22;;
3953;SDS011;1991;48.682;9.030;2023-06-10T09:45:47;7.47;;;4.53;;
3953;SDS011;1991;48.682;9.030;2023-06-10T09:48:18;4.72;;;4.20;;
3953;SDS011;1991;48.682;9.030;2023-06-10T09:50:44;6.05;;;4.45;;
3953;SDS011;1991;48.682;9.030;2023-06-10T09:53:10;5.35;;;4.60;;
3953;SDS011;1991;48.682;9.030;2023-06-10T09:55:39;4.80;;;4.30;;
3953;SDS011;1991;48.682;9.030;2023-06-10T09:58:06;5.47;;;4.60;;
3953;SDS011;1991;48.682;9.030;2023-06-10T10:00:32;4.93;;;4.43;;
3953;SDS011;1991;48.682;9.030;2023-06-10T10:02:58;4.30;;;4.00;;
3953;SDS011;1991;48.682;9.030;2023-06-10T10:05:24;7.57;;;4.60;;
3953;SDS011;1991;48.682;9.030;2023-06-10T10:07:51;4.95;;;4.55;;
3953;SDS011;1991;48.682;9.030;2023-06-10T10:10:18;4.53;;;4.20;;
3953;SDS011;1991;48.682;9.030;2023-06-10T10:12:48;4.32;;;3.90;;
3953;SDS011;1991;48.682;9.030;2023-06-10T10:15:18;4.63;;;4.00;;
3953;SDS011;1991;48.682;9.030;2023-06-10T10:17:52;3.92;;;3.63;;
3953;SDS011;1991;48.682;9.030;2023-06-10T10:20:22;4.85;;;4.13;;
3953;SDS011;1991;48.682;9.030;2023-06-10T10:22:52;4.72;;;4.07;;
3953;SDS011;1991;48.682;9.030;2023-06-10T10:25:24;4.10;;;3.65;;
3953;SDS011;1991;48.682;9.030;2023-06-10T10:28:10;4.22;;;3.70;;
3953;SDS011;1991;48.682;9.030;2023-06-10T10:30:40;5.03;;;3.97;;
3953;SDS011;1991;48.682;9.030;2023-06-10T10:33:12;4.85;;;3.92;;
3953;SDS011;1991;48.682;9.030;2023-06-10T10:35:41;4.50;;;4.10;;
3953;SDS011;1991;48.682;9.030;2023-06-10T10:38:08;3.63;;;3.33;;
3953;SDS011;1991;48.682;9.030;2023-06-10T10:40:34;7.50;;;4.00;;
3953;SDS011;1991;48.682;9.030;2023-06-10T10:43:00;3.83;;;3.53;;
3953;SDS011;1991;48.682;9.030;2023-06-10T10:45:28;3.97;;;3.58;;
3953;SDS011;1991;48.682;9.030;2023-06-10T10:47:54;3.88;;;3.55;;
3953;SDS011;1991;48.682;9.030;2023-06-10T10:50:21;4.18;;;3.75;;
3953;SDS011;1991;48.682;9.030;2023-06-10T10:55:20;3.88;;;3.58;;
3953;SDS011;1991;48.682;9.030;2023-06-10T10:58:06;4.95;;;4.00;;
3953;SDS011;1991;48.682;9.030;2023-06-10T11:00:36;5.65;;;3.88;;
3953;SDS011;1991;48.682;9.030;2023-06-10T11:05:41;4.13;;;3.20;;
3953;SDS011;1991;48.682;9.030;2023-06-10T11:08:09;4.05;;;3.67;;
3953;SDS011;1991;48.682;9.030;2023-06-10T11:13:05;3.55;;;3.25;;
3953;SDS011;1991;48.682;9.030;2023-06-10T11:15:33;3.58;;;3.28;;
3953;SDS011;1991;48.682;9.030;2023-06-10T11:21:06;4.00;;;3.60;;
3953;SDS011;1991;48.682;9.030;2023-06-10T11:23:33;4.15;;;3.50;;
3953;SDS011;1991;48.682;9.030;2023-06-10T11:36:18;4.00;;;3.70;;
3953;SDS011;1991;48.682;9.030;2023-06-10T11:38:44;4.00;;;3.70;;
3953;SDS011;1991;48.682;9.030;2023-06-10T11:41:13;4.07;;;3.38;;
3953;SDS011;1991;48.682;9.030;2023-06-10T11:43:45;3.85;;;3.47;;
3953;SDS011;1991;48.682;9.030;2023-06-10T11:46:12;3.78;;;3.28;;
3953;SDS011;1991;48.682;9.030;2023-06-10T11:48:39;4.00;;;3.33;;
3953;SDS011;1991;48.682;9.030;2023-06-10T11:51:13;4.43;;;4.03;;
3953;SDS011;1991;48.682;9.030;2023-06-10T11:53:38;4.13;;;3.72;;
3953;SDS011;1991;48.682;9.030;2023-06-10T11:56:04;4.43;;;3.13;;
3953;SDS011;1991;48.682;9.030;2023-06-10T11:58:29;3.60;;;3.30;;
3953;SDS011;1991;48.682;9.030;2023-06-10T12:00:55;5.20;;;3.83;;
3953;SDS011;1991;48.682;9.030;2023-06-10T12:03:26;3.33;;;3.10;;
3953;SDS011;1991;48.682;9.030;2023-06-10T12:06:03;4.18;;;3.40;;
3953;SDS011;1991;48.682;9.030;2023-06-10T12:08:30;4.22;;;3.50;;
3953;SDS011;1991;48.682;9.030;2023-06-10T12:10:56;4.93;;;3.40;;
3953;SDS011;1991;48.682;9.030;2023-06-10T12:13:23;6.07;;;3.42;;
3953;SDS011;1991;48.682;9.030;2023-06-10T12:15:51;3.55;;;3.25;;
3953;SDS011;1991;48.682;9.030;2023-06-10T12:18:17;3.63;;;3.33;;
3953;SDS011;1991;48.682;9.030;2023-06-10T12:20:43;4.40;;;3.42;;
3953;SDS011;1991;48.682;9.030;2023-06-10T12:23:09;3.55;;;3.25;;
3953;SDS011;1991;48.682;9.030;2023-06-10T12:25:36;3.72;;;3.42;;
3953;SDS011;1991;48.682;9.030;2023-06-10T12:28:02;4.43;;;3.58;;
3953;SDS011;1991;48.682;9.030;2023-06-10T12:30:28;4.28;;;3.80;;
3953;SDS011;1991;48.682;9.030;2023-06-10T12:32:54;4.75;;;4.07;;
3953;SDS011;1991;48.682;9.030;2023-06-10T12:35:21;4.13;;;3.70;;
3953;SDS011;1991;48.682;9.030;2023-06-10T12:37:54;4.00;;;3.70;;
3953;SDS011;1991;48.682;9.030;2023-06-10T12:40:31;4.20;;;3.80;;
3953;SDS011;1991;48.682;9.030;2023-06-10T12:42:58;4.50;;;4.10;;
3953;SDS011;1991;48.682;9.030;2023-06-10T12:45:29;4.82;;;3.40;;
3953;SDS011;1991;48.682;9.030;2023-06-10T12:50:55;5.32;;;3.85;;
3953;SDS011;1991;48.682;9.030;2023-06-10T12:53:21;5.82;;;3.80;;
3953;SDS011;1991;48.682;9.030;2023-06-10T12:55:48;4.65;;;3.90;;
3953;SDS011;1991;48.682;9.030;2023-06-10T12:58:14;4.22;;;3.88;;
3953;SDS011;1991;48.682;9.030;2023-06-10T13:00:40;3.97;;;3.58;;
3953;SDS011;1991;48.682;9.030;2023-06-10T13:03:07;3.47;;;3.17;;
3953;SDS011;1991;48.682;9.030;2023-06-10T13:05:34;6.38;;;3.67;;
3953;SDS011;1991;48.682;9.030;2023-06-10T13:08:02;4.28;;;3.90;;
3953;SDS011;1991;48.682;9.030;2023-06-10T13:10:27;4.38;;;3.72;;
3953;SDS011;1991;48.682;9.030;2023-06-10T13:12:53;6.43;;;3.75;;
3953;SDS011;1991;48.682;9.030;2023-06-10T13:15:21;5.63;;;3.88;;
3953;SDS011;1991;48.682;9.030;2023-06-10T13:17:47;4.80;;;3.90;;
3953;SDS011;1991;48.682;9.030;2023-06-10T13:20:15;4.32;;;4.03;;
3953;SDS011;1991;48.682;9.030;2023-06-10T13:22:41;3.92;;;3.50;;
3953;SDS011;1991;48.682;9.030;2023-06-10T13:25:07;4.20;;;3.80;;
3953;SDS011;1991;48.682;9.030;2023-06-10T13:27:34;4.32;;;3.92;;
3953;SDS011;1991;48.682;9.030;2023-06-10T13:30:00;5.20;;;3.50;;
3953;SDS011;1991;48.682;9.030;2023-06-10T13:32:25;3.70;;;3.40;;
3953;SDS011;1991;48.682;9.030;2023-06-10T13:34:51;4.60;;;3.80;;
3953;SDS011;1991;48.682;9.030;2023-06-10T13:37:18;3.80;;;3.50;;
3953;SDS011;1991;48.682;9.030;2023-06-10T13:39:44;4.82;;;3.92;;
3953;SDS011;1991;48.682;9.030;2023-06-10T13:42:13;4.68;;;3.67;;
3953;SDS011;1991;48.682;9.030;2023-06-10T13:44:39;5.47;;;3.85;;
3953;SDS011;1991;48.682;9.030;2023-06-10T13:47:05;3.78;;;3.15;;
3953;SDS011;1991;48.682;9.030;2023-06-10T13:49:31;3.70;;;3.40;;
3953;SDS011;1991;48.682;9.030;2023-06-10T13:51:57;4.03;;;3.70;;
3953;SDS011;1991;48.682;9.030;2023-06-10T13:54:22;6.00;;;3.92;;
3953;SDS011;1991;48.682;9.030;2023-06-10T13:56:48;5.75;;;3.92;;
3953;SDS011;1991;48.682;9.030;2023-06-10T13:59:14;3.72;;;3.42;;
3953;SDS011;1991;48.682;9.030;2023-06-10T14:01:39;6.13;;;3.67;;
3953;SDS011;1991;48.682;9.030;2023-06-10T14:04:06;3.55;;;3.35;;
3953;SDS011;1991;48.682;9.030;2023-06-10T14:06:32;3.83;;;3.53;;
3953;SDS011;1991;48.682;9.030;2023-06-10T14:08:59;4.22;;;2.95;;
3953;SDS011;1991;48.682;9.030;2023-06-10T14:11:24;4.15;;;3.58;;
3953;SDS011;1991;48.682;9.030;2023-06-10T14:13:50;5.22;;;3.38;;
3953;SDS011;1991;48.682;9.030;2023-06-10T14:16:16;4.13;;;3.80;;
3953;SDS011;1991;48.682;9.030;2023-06-10T14:18:41;4.65;;;3.83;;
3953;SDS011;1991;48.682;9.030;2023-06-10T14:21:07;4.07;;;3.47;;
3953;SDS011;1991;48.682;9.030;2023-06-10T14:23:32;4.15;;;3.75;;
3953;SDS011;1991;48.682;9.030;2023-06-10T14:25:58;3.30;;;3.10;;
3953;SDS011;1991;48.682;9.030;2023-06-10T14:28:24;4.80;;;3.42;;
3953;SDS011;1991;48.682;9.030;2023-06-10T14:30:51;4.15;;;3.70;;
3953;SDS011;1991;48.682;9.030;2023-06-10T14:33:17;3.90;;;3.60;;
3953;SDS011;1991;48.682;9.030;2023-06-10T14:35:43;4.22;;;3.30;;
3953;SDS011;1991;48.682;9.030;2023-06-10T14:38:09;3.80;;;3.50;;
3953;SDS011;1991;48.682;9.030;2023-06-10T14:40:35;3.78;;;3.40;;
3953;SDS011;1991;48.682;9.030;2023-06-10T14:43:00;4.85;;;3.40;;
3953;SDS011;1991;48.682;9.030;2023-06-10T14:45:29;5.25;;;3.63;;
3953;SDS011;1991;48.682;9.030;2023-06-10T14:47:54;3.28;;;3.05;;
3953;SDS011;1991;48.682;9.030;2023-06-10T14:50:20;3.47;;;3.13;;
3953;SDS011;1991;48.682;9.030;2023-06-10T14:52:46;3.53;;;3.28;;
3953;SDS011;1991;48.682;9.030;2023-06-10T14:55:11;3.70;;;3.40;;
3953;SDS011;1991;48.682;9.030;2023-06-10T14:57:37;4.05;;;3.30;;
3953;SDS011;1991;48.682;9.030;2023-06-10T15:00:03;3.92;;;3.60;;
3953;SDS011;1991;48.682;9.030;2023-06-10T15:02:29;4.53;;;3.47;;
3953;SDS011;1991;48.682;9.030;2023-06-10T15:04:55;2.92;;;2.65;;
3953;SDS011;1991;48.682;9.030;2023-06-10T15:07:20;4.47;;;3.72;;
3953;SDS011;1991;48.682;9.030;2023-06-10T15:09:46;4.72;;;3.50;;
3953;SDS011;1991;48.682;9.030;2023-06-10T15:12:11;4.95;;;3.28;;
3953;SDS011;1991;48.682;9.030;2023-06-10T15:14:37;4.07;;;3.50;;
3953;SDS011;1991;48.682;9.030;2023-06-10T15:17:03;5.25;;;3.60;;
3953;SDS011;1991;48.682;9.030;2023-06-10T15:19:28;3.50;;;3.20;;
3953;SDS011;1991;48.682;9.030;2023-06-10T15:21:54;3.20;;;3.00;;
3953;SDS011;1991;48.682;9.030;2023-06-10T15:24:19;3.47;;;3.17;;
3953;SDS011;1991;48.682;9.030;2023-06-10T15:26:45;3.85;;;3.55;;
3953;SDS011;1991;48.682;9.030;2023-06-10T15:29:11;3.85;;;3.55;;
3953;SDS011;1991;48.682;9.030;2023-06-10T15:31:36;4.22;;;3.88;;
3953;SDS011;1991;48.682;9.030;2023-06-10T15:34:02;3.50;;;3.20;;
3953;SDS011;1991;48.682;9.030;2023-06-10T15:36:29;4.10;;;3.80;;
3953;SDS011;1991;48.682;9.030;2023-06-10T15:38:59;4.28;;;3.88;;
3953;SDS011;1991;48.682;9.030;2023-06-10T15:41:27;4.07;;;3.72;;